createdAt,value
2023-11-22T00:00:44.947Z,76.83
2023-11-22T00:03:12.323Z,76.66
2023-11-22T00:05:40.975Z,77.29
2023-11-22T00:08:08.281Z,77.04
2023-11-22T00:10:35.592Z,76.51
2023-11-22T00:13:03.534Z,76.76
2023-11-22T00:15:30.807Z,77.54
2023-11-22T00:17:58.111Z,77.47
2023-11-22T00:20:25.444Z,77.45
2023-11-22T00:22:54.153Z,77.78
2023-11-22T00:25:21.521Z,78.27
2023-11-22T00:27:48.861Z,77.63
2023-11-22T00:30:16.373Z,77.63
2023-11-22T00:32:43.759Z,78.03
2023-11-22T00:35:11.334Z,77.70
2023-11-22T00:37:38.773Z,77.59
2023-11-22T00:40:08.688Z,77.64
2023-11-22T00:42:35.948Z,77.92
2023-11-22T00:45:03.433Z,77.39
2023-11-22T00:47:30.749Z,77.34
2023-11-22T00:49:58.123Z,77.05
2023-11-22T00:52:25.675Z,76.69
2023-11-22T00:54:52.954Z,76.62
2023-11-22T00:57:21.669Z,76.41
2023-11-22T00:59:49.029Z,77.23
2023-11-22T01:02:16.357Z,77.11
2023-11-22T01:04:43.696Z,77.49
2023-11-22T01:07:10.968Z,76.97
2023-11-22T01:09:38.254Z,76.87
2023-11-22T01:12:06.388Z,76.87
2023-11-22T01:14:35.078Z,76.51
2023-11-22T01:17:02.390Z,76.31
2023-11-22T01:19:29.768Z,76.08
2023-11-22T01:21:57.059Z,75.92
2023-11-22T01:24:24.327Z,76.07
2023-11-22T01:26:51.612Z,76.16
2023-11-22T01:29:18.931Z,75.68
2023-11-22T01:31:47.579Z,75.80
2023-11-22T01:34:14.830Z,76.10
2023-11-22T01:36:43.700Z,77.03
2023-11-22T01:39:12.125Z,77.04
2023-11-22T01:41:39.392Z,76.46
2023-11-22T01:44:06.733Z,76.40
2023-11-22T01:46:34.162Z,75.97
2023-11-22T01:49:03.221Z,75.79
2023-11-22T01:51:31.423Z,75.60
2023-11-22T01:53:59.410Z,76.27
2023-11-22T01:56:27.646Z,76.66
2023-11-22T01:58:58.754Z,76.67
2023-11-22T02:01:27.128Z,76.37
2023-11-22T02:03:54.566Z,76.31
2023-11-22T02:06:23.556Z,76.30
2023-11-22T02:08:50.885Z,76.26
2023-11-22T02:11:19.017Z,75.75
2023-11-22T02:13:46.290Z,75.67
2023-11-22T02:16:13.649Z,75.54
2023-11-22T02:18:40.988Z,75.48
2023-11-22T02:21:08.279Z,75.12
2023-11-22T02:23:36.907Z,75.18
2023-11-22T02:26:04.251Z,74.85
2023-11-22T02:28:31.588Z,75.25
2023-11-22T02:30:58.849Z,75.31
2023-11-22T02:33:26.223Z,75.41
2023-11-22T02:35:53.666Z,75.24
2023-11-22T02:38:21.001Z,75.01
2023-11-22T02:40:50.164Z,75.11
2023-11-22T02:43:17.539Z,74.93
2023-11-22T02:45:45.755Z,75.05
2023-11-22T02:48:13.159Z,74.94
2023-11-22T02:50:40.609Z,74.65
2023-11-22T02:53:08.085Z,74.64
2023-11-22T02:55:35.377Z,74.85
2023-11-22T02:58:04.082Z,74.44
2023-11-22T03:00:31.442Z,74.19
2023-11-22T03:02:58.883Z,74.30
2023-11-22T03:05:26.388Z,74.72
2023-11-22T03:07:53.777Z,74.92
2023-11-22T03:10:21.069Z,75.00
2023-11-22T03:12:48.335Z,74.89
2023-11-22T03:15:17.039Z,74.70
2023-11-22T03:17:44.394Z,74.54
2023-11-22T03:20:12.434Z,75.04
2023-11-22T03:22:39.933Z,74.80
2023-11-22T03:25:07.732Z,74.48
2023-11-22T03:27:35.003Z,74.36
2023-11-22T03:30:02.334Z,74.33
2023-11-22T03:32:31.063Z,74.18
2023-11-22T03:34:58.509Z,74.12
2023-11-22T03:37:25.852Z,74.26
2023-11-22T03:39:53.108Z,73.98
2023-11-22T03:42:20.368Z,74.24
2023-11-22T03:44:47.664Z,74.10
2023-11-22T03:47:16.287Z,73.97
2023-11-22T03:49:45.015Z,73.98
2023-11-22T03:52:12.817Z,74.10
2023-11-22T03:54:40.181Z,73.88
2023-11-22T03:57:07.484Z,74.07
2023-11-22T03:59:35.566Z,74.15
2023-11-22T04:02:02.898Z,73.45
2023-11-22T04:04:30.203Z,74.00
2023-11-22T04:06:58.892Z,73.97
2023-11-22T04:09:26.236Z,74.16
2023-11-22T04:11:53.523Z,73.86
2023-11-22T04:14:20.786Z,74.21
2023-11-22T04:16:48.753Z,74.10
2023-11-22T04:19:16.555Z,73.87
2023-11-22T04:21:44.090Z,73.96
2023-11-22T04:24:12.720Z,74.10
2023-11-22T04:26:40.066Z,73.98
2023-11-22T04:29:07.571Z,73.95
2023-11-22T04:31:34.988Z,73.95
2023-11-22T04:34:02.461Z,74.09
2023-11-22T04:36:29.793Z,74.42
2023-11-22T04:38:57.057Z,74.26
2023-11-22T04:41:25.762Z,74.11
2023-11-22T04:43:53.092Z,74.31
2023-11-22T04:46:20.374Z,74.40
2023-11-22T04:48:47.766Z,74.59
2023-11-22T04:51:15.740Z,74.36
2023-11-22T04:53:43.060Z,74.18
2023-11-22T04:56:10.367Z,73.86
2023-11-22T04:58:39.073Z,74.28
2023-11-22T05:01:06.461Z,74.37
2023-11-22T05:03:33.840Z,74.79
2023-11-22T05:06:01.218Z,75.63
2023-11-22T05:08:28.509Z,75.21
2023-11-22T05:10:57.279Z,75.12
2023-11-22T05:13:24.668Z,74.78
2023-11-22T05:15:53.342Z,74.99
2023-11-22T05:18:20.752Z,74.78
2023-11-22T05:20:48.286Z,74.48
2023-11-22T05:23:15.693Z,74.44
2023-11-22T05:25:43.007Z,75.10
2023-11-22T05:28:10.333Z,76.08
2023-11-22T05:30:37.603Z,76.69
2023-11-22T05:33:06.271Z,76.94
2023-11-22T05:35:33.655Z,76.52
2023-11-22T05:38:00.954Z,76.58
2023-11-22T05:40:28.225Z,76.44
2023-11-22T05:42:55.600Z,75.92
2023-11-22T05:45:22.874Z,75.68
2023-11-22T05:47:50.233Z,76.00
2023-11-22T05:50:19.005Z,75.77
2023-11-22T05:52:46.360Z,76.11
2023-11-22T05:55:13.792Z,76.05
2023-11-22T05:57:41.141Z,76.62
2023-11-22T06:00:09.603Z,77.61
2023-11-22T06:02:37.016Z,77.62
2023-11-22T06:05:04.962Z,78.02
2023-11-22T06:07:33.744Z,78.62
2023-11-22T06:10:01.045Z,78.30
2023-11-22T06:12:28.346Z,78.37
2023-11-22T06:14:55.654Z,78.54
2023-11-22T06:17:22.977Z,78.95
2023-11-22T06:19:50.261Z,78.91
2023-11-22T06:22:17.559Z,79.27
2023-11-22T06:24:46.331Z,79.77
2023-11-22T06:27:13.767Z,79.35
2023-11-22T06:29:41.184Z,79.82
2023-11-22T06:32:08.593Z,79.40
2023-11-22T06:34:37.580Z,78.84
2023-11-22T06:37:06.353Z,78.51
2023-11-22T06:39:33.688Z,78.73
2023-11-22T06:42:02.337Z,78.42
2023-11-22T06:44:29.689Z,77.75
2023-11-22T06:46:56.987Z,77.29
2023-11-22T06:49:24.269Z,77.02
2023-11-22T06:51:51.579Z,76.17
2023-11-22T06:54:20.241Z,76.20
2023-11-22T06:56:47.580Z,76.27
2023-11-22T06:59:16.311Z,76.24
2023-11-22T07:01:43.965Z,75.86
2023-11-22T07:04:11.440Z,76.22
2023-11-22T07:06:38.958Z,76.58
2023-11-22T07:09:06.791Z,76.21
2023-11-22T07:11:34.163Z,75.62
2023-11-22T07:14:01.448Z,76.15
2023-11-22T07:16:30.095Z,77.29
2023-11-22T07:18:57.490Z,76.53
2023-11-22T07:21:24.804Z,76.41
2023-11-22T07:23:53.653Z,75.78
2023-11-22T07:26:21.199Z,75.51
2023-11-22T07:28:48.604Z,75.46
2023-11-22T07:31:16.093Z,75.50
2023-11-22T07:33:44.767Z,74.82
2023-11-22T07:36:12.057Z,75.10
2023-11-22T07:38:39.648Z,74.51
2023-11-22T07:41:07.013Z,74.41
2023-11-22T07:43:34.316Z,73.80
2023-11-22T07:46:01.650Z,73.77
2023-11-22T07:48:28.969Z,73.73
2023-11-22T07:50:57.691Z,72.96
2023-11-22T07:53:25.066Z,73.29
2023-11-22T07:55:52.370Z,72.81
2023-11-22T07:58:19.769Z,73.02
2023-11-22T08:00:47.235Z,73.12
2023-11-22T08:03:14.686Z,74.04
2023-11-22T08:05:42.157Z,74.43
2023-11-22T08:08:10.888Z,73.61
2023-11-22T08:10:38.508Z,74.16
2023-11-22T08:13:05.826Z,74.09
2023-11-22T08:15:33.269Z,73.47
2023-11-22T08:18:00.716Z,73.94
2023-11-22T08:20:28.133Z,73.20
2023-11-22T08:22:55.439Z,72.74
2023-11-22T08:25:24.093Z,72.42
2023-11-22T08:27:51.378Z,72.31
2023-11-22T08:30:19.076Z,72.09
2023-11-22T08:32:47.380Z,71.26
2023-11-22T08:35:15.023Z,70.71
2023-11-22T08:37:43.228Z,70.53
2023-11-22T08:40:11.884Z,70.37
2023-11-22T08:42:40.670Z,70.44
2023-11-22T08:45:09.123Z,70.26
2023-11-22T08:47:36.509Z,70.00
2023-11-22T08:50:04.542Z,70.76
2023-11-22T08:52:31.898Z,71.01
2023-11-22T08:54:59.199Z,71.43
2023-11-22T08:57:26.463Z,72.51
2023-11-22T08:59:56.236Z,72.26
2023-11-22T09:02:23.604Z,71.48
2023-11-22T09:04:50.939Z,72.67
2023-11-22T09:07:18.231Z,72.32
2023-11-22T09:09:45.531Z,72.19
2023-11-22T09:12:12.800Z,73.19
2023-11-22T09:14:41.211Z,72.18
2023-11-22T09:17:10.273Z,71.11
2023-11-22T09:19:37.810Z,71.51
2023-11-22T09:22:05.785Z,69.77
2023-11-22T09:24:33.662Z,70.09
2023-11-22T09:27:00.928Z,69.51
2023-11-22T09:29:28.941Z,68.30
2023-11-22T09:31:56.687Z,68.16
2023-11-22T09:34:25.543Z,67.31
2023-11-22T09:36:52.876Z,66.65
2023-11-22T09:39:20.173Z,67.15
2023-11-22T09:41:47.558Z,66.71
2023-11-22T09:44:15.016Z,66.28
2023-11-22T09:46:43.113Z,66.10
2023-11-22T09:49:15.990Z,66.69
2023-11-22T09:51:45.170Z,66.03
2023-11-22T09:54:13.253Z,67.38
2023-11-22T09:56:41.173Z,68.96
2023-11-22T09:59:09.485Z,68.88
2023-11-22T10:01:36.934Z,67.99
2023-11-22T10:04:04.987Z,68.83
2023-11-22T10:06:32.400Z,67.96
2023-11-22T10:09:01.880Z,68.39
2023-11-22T10:11:30.156Z,67.50
2023-11-22T10:13:57.457Z,66.90
2023-11-22T10:16:24.745Z,67.78
2023-11-22T10:18:52.255Z,67.97
2023-11-22T10:21:21.199Z,68.09
2023-11-22T10:23:49.103Z,67.11
2023-11-22T10:26:17.921Z,66.40
2023-11-22T10:28:45.621Z,66.70
2023-11-22T10:31:13.017Z,65.63
2023-11-22T10:33:40.913Z,65.08
2023-11-22T10:36:08.725Z,64.91
2023-11-22T10:38:36.662Z,63.85
2023-11-22T10:41:05.461Z,65.39
2023-11-22T10:43:35.688Z,63.44
2023-11-22T10:46:03.805Z,64.47
2023-11-22T10:48:32.175Z,65.38
2023-11-22T10:51:02.240Z,65.70
2023-11-22T10:53:33.265Z,66.48
2023-11-22T10:56:07.940Z,66.71
2023-11-22T10:58:38.748Z,65.93
2023-11-22T11:01:07.423Z,64.05
2023-11-22T11:03:38.746Z,63.70
2023-11-22T11:06:11.249Z,63.92
2023-11-22T11:08:39.333Z,63.86
2023-11-22T11:11:06.656Z,62.47
2023-11-22T11:13:34.017Z,62.03
2023-11-22T11:16:03.086Z,62.93
2023-11-22T11:18:31.788Z,61.42
2023-11-22T11:21:00.005Z,62.54
2023-11-22T11:23:28.258Z,62.00
2023-11-22T11:25:56.668Z,61.65
2023-11-22T11:28:24.707Z,59.88
2023-11-22T11:30:52.157Z,59.33
2023-11-22T11:33:27.967Z,60.75
2023-11-22T11:35:58.325Z,60.31
2023-11-22T11:38:32.244Z,60.60
2023-11-22T11:41:07.917Z,60.08
2023-11-22T11:43:41.833Z,58.58
2023-11-22T11:46:10.106Z,60.74
2023-11-22T11:48:38.914Z,61.08
2023-11-22T11:51:06.339Z,60.61
2023-11-22T11:53:33.678Z,60.63
2023-11-22T11:56:02.709Z,60.70
2023-11-22T11:58:30.229Z,61.91
2023-11-22T12:00:57.481Z,61.10
2023-11-22T12:03:24.857Z,60.61
2023-11-22T12:05:53.588Z,62.84
2023-11-22T12:08:21.146Z,64.63
2023-11-22T12:10:48.651Z,65.69
2023-11-22T12:13:18.246Z,66.02
2023-11-22T12:15:45.537Z,66.06
2023-11-22T12:18:12.954Z,63.85
2023-11-22T12:20:40.697Z,63.18
2023-11-22T12:23:10.404Z,61.77
2023-11-22T12:25:37.674Z,62.77
2023-11-22T12:28:05.313Z,62.34
2023-11-22T12:30:34.007Z,62.14
2023-11-22T12:33:05.737Z,61.03
2023-11-22T12:35:33.505Z,60.75
2023-11-22T12:38:01.217Z,60.94
2023-11-22T12:40:30.571Z,60.40
2023-11-22T12:42:58.558Z,59.91
2023-11-22T12:45:27.607Z,59.21
2023-11-22T12:47:55.392Z,59.38
2023-11-22T12:50:33.871Z,59.39
2023-11-22T12:53:09.320Z,60.16
2023-11-22T12:55:38.327Z,60.22
2023-11-22T12:58:05.599Z,59.50
2023-11-22T13:00:32.912Z,59.66
2023-11-22T13:03:03.689Z,60.06
2023-11-22T13:05:31.897Z,59.05
2023-11-22T13:08:00.987Z,59.59
2023-11-22T13:10:29.710Z,60.44
2023-11-22T13:12:58.391Z,60.24
2023-11-22T13:15:25.774Z,60.73
2023-11-22T13:17:53.544Z,60.91
2023-11-22T13:20:20.849Z,60.64
2023-11-22T13:22:48.164Z,60.21
2023-11-22T13:25:15.525Z,61.00
2023-11-22T13:27:42.783Z,61.69
2023-11-22T13:30:11.633Z,61.49
2023-11-22T13:32:39.076Z,61.11
2023-11-22T13:35:06.768Z,59.47
2023-11-22T13:37:34.043Z,58.57
2023-11-22T13:40:01.355Z,58.92
2023-11-22T13:42:28.641Z,59.29
2023-11-22T13:44:55.950Z,58.69
2023-11-22T13:47:24.748Z,57.57
2023-11-22T13:49:52.082Z,58.28
2023-11-22T13:52:19.394Z,57.85
2023-11-22T13:54:46.654Z,57.91
2023-11-22T13:57:13.929Z,58.58
2023-11-22T13:59:41.233Z,58.99
2023-11-22T14:02:08.513Z,58.03
2023-11-22T14:04:37.199Z,59.32
2023-11-22T14:07:04.464Z,60.19
2023-11-22T14:09:31.803Z,60.80
2023-11-22T14:11:59.100Z,59.95
2023-11-22T14:14:26.378Z,60.68
2023-11-22T14:16:55.067Z,60.70
2023-11-22T14:19:22.315Z,60.49
2023-11-22T14:21:51.009Z,61.27
2023-11-22T14:24:18.266Z,59.66
2023-11-22T14:26:45.550Z,59.73
2023-11-22T14:29:12.837Z,60.57
2023-11-22T14:31:40.213Z,60.53
2023-11-22T14:34:07.530Z,58.93
2023-11-22T14:36:34.807Z,60.24
2023-11-22T14:39:03.622Z,59.33
2023-11-22T14:41:30.925Z,59.70
2023-11-22T14:43:58.224Z,59.44
2023-11-22T14:46:25.499Z,58.87
2023-11-22T14:48:52.756Z,57.64
2023-11-22T14:51:20.013Z,57.81
2023-11-22T14:53:47.309Z,57.97
2023-11-22T14:56:16.004Z,58.36
2023-11-22T14:58:43.280Z,59.40
2023-11-22T15:01:10.636Z,59.94
2023-11-22T15:03:38.045Z,59.37
2023-11-22T15:06:05.929Z,60.65
2023-11-22T15:08:33.196Z,62.32
2023-11-22T15:11:00.462Z,63.82
2023-11-22T15:13:29.130Z,62.70
2023-11-22T15:15:56.422Z,61.56
2023-11-22T15:18:23.786Z,61.15
2023-11-22T15:20:51.128Z,60.90
2023-11-22T15:23:18.433Z,61.10
2023-11-22T15:25:45.794Z,60.62
2023-11-22T15:28:13.069Z,60.97
2023-11-22T15:30:41.761Z,60.52
2023-11-22T15:33:09.152Z,59.08
2023-11-22T15:35:36.553Z,59.82
2023-11-22T15:38:03.902Z,60.71
2023-11-22T15:40:31.260Z,60.84
2023-11-22T15:42:58.735Z,60.05
2023-11-22T15:45:25.996Z,60.69
2023-11-22T15:47:54.719Z,60.40
2023-11-22T15:50:22.053Z,60.83
2023-11-22T15:52:49.611Z,61.80
2023-11-22T15:55:16.889Z,62.63
2023-11-22T15:57:44.425Z,62.22
2023-11-22T16:00:13.670Z,61.79
2023-11-22T16:02:41.100Z,61.87
2023-11-22T16:05:12.760Z,61.93
2023-11-22T16:07:41.954Z,64.65
2023-11-22T16:10:10.028Z,63.38
2023-11-22T16:12:37.302Z,63.81
2023-11-22T16:15:05.218Z,62.81
2023-11-22T16:17:32.559Z,62.93
2023-11-22T16:19:59.862Z,63.24
2023-11-22T16:22:28.513Z,63.36
2023-11-22T16:24:55.801Z,63.04
2023-11-22T16:27:23.088Z,63.31
2023-11-22T16:29:50.428Z,62.97
2023-11-22T16:32:17.799Z,66.04
2023-11-22T16:34:45.047Z,66.37
2023-11-22T16:37:12.304Z,66.24
2023-11-22T16:39:40.943Z,66.40
2023-11-22T16:42:08.244Z,67.57
2023-11-22T16:44:35.512Z,67.58
2023-11-22T16:47:02.998Z,67.47
2023-11-22T16:49:30.286Z,69.00
2023-11-22T16:51:57.568Z,69.24
2023-11-22T16:54:24.856Z,70.46
2023-11-22T16:56:53.582Z,69.29
2023-11-22T16:59:20.881Z,69.76
2023-11-22T17:01:48.222Z,69.73
2023-11-22T17:04:15.510Z,69.40
2023-11-22T17:06:42.757Z,71.70
2023-11-22T17:09:10.103Z,71.16
2023-11-22T17:11:37.402Z,71.72
2023-11-22T17:14:06.089Z,72.29
2023-11-22T17:16:33.411Z,70.50
2023-11-22T17:19:00.679Z,71.08
2023-11-22T17:21:27.998Z,72.53
2023-11-22T17:23:55.260Z,72.48
2023-11-22T17:26:22.662Z,73.46
2023-11-22T17:28:49.936Z,74.47
2023-11-22T17:31:18.666Z,74.66
2023-11-22T17:33:46.069Z,75.88
2023-11-22T17:36:13.521Z,77.40
2023-11-22T17:38:40.812Z,78.67
2023-11-22T17:41:08.105Z,77.87
2023-11-22T17:43:35.473Z,79.44
2023-11-22T17:46:02.766Z,77.87
2023-11-22T17:48:31.522Z,78.61
2023-11-22T17:50:58.871Z,77.46
2023-11-22T17:53:26.192Z,77.89
2023-11-22T17:55:53.814Z,78.02
2023-11-22T17:58:21.067Z,77.40
2023-11-22T18:00:48.378Z,75.52
2023-11-22T18:03:15.840Z,76.31
2023-11-22T18:05:44.689Z,76.91
2023-11-22T18:08:12.309Z,75.20
2023-11-22T18:10:44.655Z,74.80
2023-11-22T18:13:16.004Z,74.29
2023-11-22T18:15:43.809Z,75.28
2023-11-22T18:18:11.362Z,76.87
2023-11-22T18:20:38.728Z,75.91
2023-11-22T18:23:07.487Z,75.09
2023-11-22T18:25:34.911Z,74.69
2023-11-22T18:28:02.180Z,74.73
2023-11-22T18:30:29.431Z,77.62
2023-11-22T18:32:56.756Z,76.86
2023-11-22T18:35:24.356Z,77.16
2023-11-22T18:37:51.705Z,78.00
2023-11-22T18:40:20.342Z,79.53
2023-11-22T18:42:47.625Z,81.06
2023-11-22T18:45:14.914Z,79.61
2023-11-22T18:47:42.378Z,78.71
2023-11-22T18:50:10.435Z,77.58
2023-11-22T18:52:37.689Z,77.42
2023-11-22T18:55:05.609Z,77.47
2023-11-22T18:57:34.237Z,76.23
2023-11-22T19:00:01.544Z,77.82
2023-11-22T19:02:28.956Z,77.18
2023-11-22T19:04:56.349Z,77.96
2023-11-22T19:07:23.633Z,79.57
2023-11-22T19:09:51.094Z,78.66
2023-11-22T19:12:18.464Z,76.57
2023-11-22T19:14:47.175Z,76.10
2023-11-22T19:17:14.451Z,76.64
2023-11-22T19:19:41.753Z,75.37
2023-11-22T19:22:09.501Z,76.54
2023-11-22T19:24:36.748Z,77.00
2023-11-22T19:27:04.427Z,76.57
2023-11-22T19:29:31.796Z,77.25
2023-11-22T19:32:00.437Z,77.24
2023-11-22T19:34:27.734Z,76.21
2023-11-22T19:36:56.523Z,76.88
2023-11-22T19:39:24.070Z,75.90
2023-11-22T19:41:51.446Z,77.00
2023-11-22T19:44:18.735Z,76.21
2023-11-22T19:46:45.987Z,75.65
2023-11-22T19:49:14.642Z,75.76
2023-11-22T19:51:41.974Z,76.69
2023-11-22T19:54:09.318Z,76.08
2023-11-22T19:56:36.706Z,77.42
2023-11-22T19:59:04.165Z,76.86
2023-11-22T20:01:31.701Z,77.42
2023-11-22T20:03:59.150Z,77.26
2023-11-22T20:06:27.883Z,76.63
2023-11-22T20:08:55.478Z,76.14
2023-11-22T20:11:22.753Z,74.58
2023-11-22T20:13:50.081Z,75.67
2023-11-22T20:16:17.592Z,76.02
2023-11-22T20:18:44.958Z,75.30
2023-11-22T20:21:12.417Z,75.50
2023-11-22T20:23:41.168Z,75.73
2023-11-22T20:26:08.601Z,75.71
2023-11-22T20:28:35.881Z,75.69
2023-11-22T20:31:03.145Z,75.34
2023-11-22T20:33:30.683Z,75.22
2023-11-22T20:35:58.129Z,75.01
2023-11-22T20:38:25.466Z,74.92
2023-11-22T20:40:54.189Z,74.79
2023-11-22T20:43:21.536Z,75.32
2023-11-22T20:45:48.984Z,75.65
2023-11-22T20:48:16.370Z,76.80
2023-11-22T20:50:43.950Z,77.01
2023-11-22T20:53:11.239Z,75.94
2023-11-22T20:55:39.348Z,76.40
2023-11-22T20:58:07.956Z,76.96
2023-11-22T21:00:35.216Z,76.08
2023-11-22T21:03:02.729Z,76.56
2023-11-22T21:05:30.111Z,75.94
2023-11-22T21:07:57.952Z,76.13
2023-11-22T21:10:25.376Z,77.41
2023-11-22T21:12:52.705Z,76.35
2023-11-22T21:15:21.389Z,76.57
2023-11-22T21:17:48.833Z,76.13
2023-11-22T21:20:16.293Z,76.24
2023-11-22T21:22:43.646Z,76.36
2023-11-22T21:25:11.131Z,75.77
2023-11-22T21:27:38.596Z,75.17
2023-11-22T21:30:07.180Z,75.63
2023-11-22T21:32:35.931Z,75.50
2023-11-22T21:35:03.310Z,74.98
2023-11-22T21:37:30.578Z,75.14
2023-11-22T21:39:57.838Z,75.71
2023-11-22T21:42:25.158Z,75.34
2023-11-22T21:44:52.462Z,76.41
2023-11-22T21:47:19.750Z,76.88
2023-11-22T21:49:48.614Z,76.35
2023-11-22T21:52:15.981Z,76.91
2023-11-22T21:54:43.339Z,76.38
2023-11-22T21:57:10.626Z,75.51
2023-11-22T21:59:38.031Z,76.10
2023-11-22T22:02:05.441Z,75.76
2023-11-22T22:04:32.813Z,75.93
2023-11-22T22:07:01.434Z,75.98
2023-11-22T22:09:28.697Z,75.96
2023-11-22T22:11:55.990Z,76.11
2023-11-22T22:14:23.257Z,75.92
2023-11-22T22:16:50.539Z,75.21
2023-11-22T22:19:17.815Z,76.10
2023-11-22T22:21:45.062Z,76.03
2023-11-22T22:24:13.783Z,76.27
2023-11-22T22:26:41.221Z,76.13
2023-11-22T22:29:08.528Z,75.83
2023-11-22T22:31:38.464Z,76.01
2023-11-22T22:34:05.732Z,76.42
2023-11-22T22:36:33.047Z,77.34
2023-11-22T22:39:00.385Z,76.40
2023-11-22T22:41:29.036Z,76.17
2023-11-22T22:43:56.323Z,75.98
2023-11-22T22:46:23.696Z,77.06
2023-11-22T22:48:51.450Z,77.18
2023-11-22T22:51:19.120Z,76.11
2023-11-22T22:53:47.010Z,75.53
2023-11-22T22:56:14.273Z,75.37
2023-11-22T22:58:42.925Z,75.62
2023-11-22T23:01:11.673Z,76.16
2023-11-22T23:03:39.202Z,76.54
2023-11-22T23:06:07.570Z,76.76
2023-11-22T23:08:37.281Z,76.67
2023-11-22T23:11:04.687Z,76.80
2023-11-22T23:13:32.146Z,76.36
2023-11-22T23:16:00.791Z,76.16
2023-11-22T23:18:28.196Z,75.95
2023-11-22T23:20:55.567Z,76.08
2023-11-22T23:23:22.870Z,76.35
2023-11-22T23:25:50.154Z,76.30
